Time;durP1;ratioP1;P1;durP2;ratioP2;P2;SDS_P1;SDS_P2;PMS_P1;PMS_P2;Temp;Humidity;BMP_temperature;BMP_pressure;BME280_temperature;BME280_humidity;BME280_pressure;Samples;Min_cycle;Max_cycle;Signal;HPM_P1;HPM_P2
2024/02/29 00:00:55;;;;;;;10.25;5.70;;;;;;;6.23;100.00;101523.97;5083094;28;20040;-68
2024/02/29 00:03:43;;;;;;;9.95;4.90;;;;;;;6.28;100.00;101524.97;5104737;28;20501;-68
2024/02/29 00:06:31;;;;;;;9.98;5.30;;;;;;;6.18;100.00;101514.66;5075295;28;20051;-67
2024/02/29 00:09:19;;;;;;;10.25;5.57;;;;;;;6.17;100.00;101504.06;5089827;28;20132;-67
2024/02/29 00:12:07;;;;;;;9.60;5.93;;;;;;;6.19;100.00;101515.47;5109795;28;20090;-68
2024/02/29 00:14:55;;;;;;;11.13;5.47;;;;;;;6.21;100.00;101502.56;5100443;27;20047;-67
2024/02/29 00:17:43;;;;;;;11.20;5.55;;;;;;;6.23;100.00;101497.75;5090474;28;20524;-68
2024/02/29 00:20:34;;;;;;;9.75;6.03;;;;;;;6.24;100.00;101507.53;5091202;28;20131;-68
2024/02/29 00:23:22;;;;;;;12.07;5.85;;;;;;;6.26;100.00;101500.00;5090670;28;20419;-68
2024/02/29 00:26:16;;;;;;;9.32;5.20;;;;;;;6.29;100.00;101493.31;5087233;28;20059;-68
2024/02/29 00:29:04;;;;;;;10.25;5.47;;;;;;;6.32;100.00;101492.88;5110848;28;20096;-68
2024/02/29 00:31:52;;;;;;;10.55;5.90;;;;;;;6.27;100.00;101485.41;5110816;28;20048;-68
2024/02/29 00:34:40;;;;;;;11.95;5.85;;;;;;;6.31;100.00;101480.41;5093703;28;20059;-67
2024/02/29 00:37:28;;;;;;;11.40;5.18;;;;;;;6.32;100.00;101488.28;5111575;28;20216;-68
2024/02/29 00:40:16;;;;;;;10.20;5.82;;;;;;;6.33;100.00;101481.00;5096263;28;20096;-68
2024/02/29 00:43:05;;;;;;;10.85;6.22;;;;;;;6.29;100.00;101479.78;5110456;28;20144;-68
2024/02/29 00:45:53;;;;;;;9.55;5.30;;;;;;;6.33;100.00;101484.53;5101440;27;20055;-68
2024/02/29 00:48:41;;;;;;;10.50;5.53;;;;;;;6.36;100.00;101483.28;5090374;28;20083;-68
2024/02/29 00:51:29;;;;;;;10.07;5.45;;;;;;;6.33;100.00;101472.91;5076122;28;20051;-68
2024/02/29 00:54:17;;;;;;;10.32;5.28;;;;;;;6.33;100.00;101472.91;5089712;28;20048;-68
2024/02/29 00:57:05;;;;;;;14.57;7.03;;;;;;;6.34;100.00;101466.41;5089628;28;20051;-68
2024/02/29 00:59:53;;;;;;;11.07;6.32;;;;;;;6.34;100.00;101464.53;5101013;27;20455;-68
2024/02/29 01:02:41;;;;;;;10.63;6.15;;;;;;;6.36;100.00;101465.13;5074760;28;20056;-67
2024/02/29 01:05:29;;;;;;;11.07;6.32;;;;;;;6.36;100.00;101462.44;5073912;28;20075;-68
2024/02/29 01:08:17;;;;;;;8.27;4.90;;;;;;;6.42;100.00;101454.47;5110884;28;20047;-68
2024/02/29 01:11:05;;;;;;;12.23;5.47;;;;;;;6.44;100.00;101446.94;5110207;28;20124;-68
2024/02/29 01:13:53;;;;;;;12.65;7.18;;;;;;;6.42;100.00;101446.34;5095243;28;20495;-68
2024/02/29 01:16:41;;;;;;;8.93;5.03;;;;;;;6.52;100.00;101442.06;5095837;28;20456;-68
2024/02/29 01:19:29;;;;;;;9.65;5.82;;;;;;;6.47;100.00;101436.53;5109891;28;20058;-68
2024/02/29 01:22:17;;;;;;;12.57;7.00;;;;;;;6.48;100.00;101438.16;5110002;28;20083;-68
2024/02/29 01:25:05;;;;;;;12.70;6.35;;;;;;;6.47;100.00;101438.38;5079414;28;20455;-68
2024/02/29 01:27:54;;;;;;;12.02;6.38;;;;;;;6.46;100.00;101434.03;5095461;28;20553;-68
2024/02/29 01:30:42;;;;;;;13.00;6.72;;;;;;;6.43;100.00;101438.00;5094335;28;20044;-68
2024/02/29 01:33:30;;;;;;;13.63;7.78;;;;;;;6.40;100.00;101425.75;5080379;28;20400;-68
2024/02/29 01:36:18;;;;;;;13.85;7.80;;;;;;;6.39;100.00;101421.38;5111589;27;20506;-68
2024/02/29 01:39:06;;;;;;;13.52;7.13;;;;;;;6.44;100.00;101417.19;5114454;28;20039;-68
2024/02/29 01:41:55;;;;;;;12.13;7.25;;;;;;;6.34;100.00;101413.13;5113980;28;20043;-68
2024/02/29 01:44:54;;;;;;;14.80;7.15;;;;;;;6.35;100.00;101414.78;5100390;28;20047;-68
2024/02/29 01:47:43;;;;;;;12.88;6.93;;;;;;;6.45;100.00;101395.31;5084781;27;20040;-69
2024/02/29 01:50:31;;;;;;;11.30;7.07;;;;;;;6.46;100.00;101396.13;5108640;27;20047;-68
2024/02/29 01:53:20;;;;;;;12.93;7.53;;;;;;;6.44;100.00;101387.41;5079209;28;20051;-68
2024/02/29 01:56:08;;;;;;;15.82;9.48;;;;;;;6.42;100.00;101378.69;5081843;28;20613;-68
2024/02/29 01:58:56;;;;;;;14.13;8.77;;;;;;;6.38;100.00;101381.84;5078681;28;20100;-68
2024/02/29 02:01:44;;;;;;;13.02;8.23;;;;;;;6.33;100.00;101372.75;5076573;28;20122;-68
2024/02/29 02:04:32;;;;;;;12.82;7.05;;;;;;;6.37;100.00;101365.81;5078565;28;20048;-68
2024/02/29 02:07:20;;;;;;;11.43;6.82;;;;;;;6.39;100.00;101361.00;5104025;28;20384;-68
2024/02/29 02:10:11;;;;;;;10.00;6.03;;;;;;;6.53;100.00;101358.97;5099147;28;20047;-68
2024/02/29 02:13:00;;;;;;;15.75;8.52;;;;;;;6.58;100.00;101357.22;5102171;27;20040;-68
2024/02/29 02:15:48;;;;;;;15.48;9.30;;;;;;;6.52;100.00;101363.56;5086879;28;20048;-68
2024/02/29 02:18:36;;;;;;;13.40;8.82;;;;;;;6.46;100.00;101348.22;5078508;28;20052;-68
2024/02/29 02:21:24;;;;;;;12.50;8.52;;;;;;;6.41;100.00;101348.09;5092476;28;20052;-68
2024/02/29 02:24:12;;;;;;;12.73;8.00;;;;;;;6.42;100.00;101346.19;5102222;28;20519;-68
2024/02/29 02:27:00;;;;;;;15.52;8.98;;;;;;;6.50;100.00;101337.78;5114280;27;20112;-68
2024/02/29 02:29:48;;;;;;;14.10;8.75;;;;;;;6.55;100.00;101337.91;5098145;28;20044;-68
2024/02/29 02:32:37;;;;;;;12.43;6.90;;;;;;;6.54;100.00;101333.53;5112456;28;20075;-68
2024/02/29 02:35:26;;;;;;;16.25;9.32;;;;;;;6.55;100.00;101333.31;5088594;28;20047;-67
2024/02/29 02:38:14;;;;;;;11.35;7.68;;;;;;;6.50;100.00;101321.53;5112107;28;20074;-68
2024/02/29 02:41:02;;;;;;;17.17;8.82;;;;;;;6.48;100.00;101318.22;5114216;28;20517;-68
2024/02/29 02:43:50;;;;;;;12.73;7.65;;;;;;;6.56;100.00;101312.47;5085205;28;20043;-68
2024/02/29 02:46:38;;;;;;;13.27;8.70;;;;;;;6.51;100.00;101312.34;5077179;28;20419;-68
2024/02/29 02:49:26;;;;;;;12.45;6.68;;;;;;;6.58;100.00;101299.56;5107717;27;20593;-68
2024/02/29 02:52:14;;;;;;;12.57;8.00;;;;;;;6.57;100.00;101289.78;5117814;27;20612;-66
2024/02/29 02:55:02;;;;;;;13.73;8.65;;;;;;;6.51;100.00;101291.50;5089529;27;20036;-67
2024/02/29 02:57:50;;;;;;;12.30;7.15;;;;;;;6.58;100.00;101280.59;5104481;28;20036;-63
2024/02/29 03:00:38;;;;;;;11.60;8.15;;;;;;;6.51;100.00;101285.28;5116656;28;20040;-66
2024/02/29 03:03:26;;;;;;;15.10;9.27;;;;;;;6.51;100.00;101269.84;5105183;28;20048;-66
2024/02/29 03:06:14;;;;;;;13.88;7.68;;;;;;;6.55;100.00;101264.81;5098245;28;20499;-67
2024/02/29 03:09:02;;;;;;;10.18;6.38;;;;;;;6.58;100.00;101264.34;5110399;28;20105;-64
2024/02/29 03:11:50;;;;;;;10.88;7.07;;;;;;;6.57;100.00;101257.31;5099466;28;20047;-65
2024/02/29 03:14:38;;;;;;;15.15;9.00;;;;;;;6.50;100.00;101259.28;5093623;28;20123;-66
2024/02/29 03:17:26;;;;;;;14.80;10.07;;;;;;;6.46;100.00;101256.19;5111997;28;20050;-68
2024/02/29 03:20:14;;;;;;;14.43;9.45;;;;;;;6.43;100.00;101256.66;5068588;28;20052;-67
2024/02/29 03:23:03;;;;;;;15.20;9.23;;;;;;;6.45;100.00;101249.13;5098771;28;20122;-68
2024/02/29 03:25:51;;;;;;;13.00;8.23;;;;;;;6.49;100.00;101239.47;5090979;28;20079;-67
2024/02/29 03:28:39;;;;;;;13.90;8.82;;;;;;;6.49;100.00;101234.06;5098534;28;20478;-68
2024/02/29 03:31:27;;;;;;;14.23;8.52;;;;;;;6.44;100.00;101228.53;5112263;28;20051;-68
2024/02/29 03:34:15;;;;;;;13.65;8.15;;;;;;;6.51;100.00;101233.84;5083933;28;20052;-69
2024/02/29 03:37:03;;;;;;;9.48;6.18;;;;;;;6.51;100.00;101228.44;5095643;28;20066;-68
2024/02/29 03:39:51;;;;;;;12.63;8.40;;;;;;;6.49;100.00;101225.13;5067766;28;20123;-67
2024/02/29 03:42:39;;;;;;;12.75;7.63;;;;;;;6.53;100.00;101218.19;5092510;28;20518;-68
2024/02/29 03:45:27;;;;;;;16.67;10.05;;;;;;;6.48;100.00;101220.78;5095022;28;20472;-68
2024/02/29 03:48:15;;;;;;;15.27;8.82;;;;;;;6.47;100.00;101219.13;5098407;27;20133;-68
2024/02/29 03:51:04;;;;;;;13.43;8.35;;;;;;;6.45;100.00;101216.66;5081932;28;20075;-68
2024/02/29 03:53:52;;;;;;;14.48;8.90;;;;;;;6.46;100.00;101210.16;5106510;28;20042;-67
2024/02/29 03:56:40;;;;;;;15.88;9.13;;;;;;;6.45;100.00;101208.53;5096255;27;20103;-68
2024/02/29 03:59:28;;;;;;;12.57;7.90;;;;;;;6.47;100.00;101205.56;5111217;28;20543;-68
2024/02/29 04:02:17;;;;;;;14.75;9.45;;;;;;;6.45;100.00;101200.41;5111903;28;20047;-67
2024/02/29 04:05:07;;;;;;;13.90;9.05;;;;;;;6.44;100.00;101200.63;5098029;28;20048;-68
2024/02/29 04:08:03;;;;;;;15.00;9.52;;;;;;;6.41;100.00;101204.63;5083253;28;20047;-68
2024/02/29 04:10:51;;;;;;;14.90;8.82;;;;;;;6.44;100.00;101203.34;5091557;28;20052;-68
2024/02/29 04:13:39;;;;;;;11.93;7.88;;;;;;;6.49;100.00;101198.06;5099453;28;20124;-68
2024/02/29 04:16:27;;;;;;;11.13;6.75;;;;;;;6.49;100.00;101192.66;5112878;28;20047;-68
2024/02/29 04:19:16;;;;;;;12.25;7.47;;;;;;;6.52;100.00;101194.91;5111601;28;20396;-68
2024/02/29 04:22:04;;;;;;;13.93;8.35;;;;;;;6.51;100.00;101193.25;5096307;28;20079;-67
2024/02/29 04:24:52;;;;;;;14.30;8.25;;;;;;;6.55;100.00;101184.44;5111868;28;20475;-68
2024/02/29 04:27:41;;;;;;;13.05;7.78;;;;;;;6.56;100.00;101182.53;5062871;28;20055;-67
2024/02/29 04:30:29;;;;;;;14.07;8.68;;;;;;;6.52;100.00;101174.06;5068893;27;20040;-68
2024/02/29 04:33:17;;;;;;;14.88;8.57;;;;;;;6.53;100.00;101174.88;5096038;28;20075;-68
2024/02/29 04:36:07;;;;;;;14.98;9.02;;;;;;;6.53;100.00;101172.19;5111031;28;20054;-68
2024/02/29 04:38:55;;;;;;;12.98;8.80;;;;;;;6.50;100.00;101172.66;5116808;27;20046;-68
2024/02/29 04:41:43;;;;;;;12.40;7.45;;;;;;;6.54;100.00;101166.53;5133313;27;20047;-68
2024/02/29 04:44:31;;;;;;;9.73;6.00;;;;;;;6.63;100.00;101169.72;5086201;28;20039;-69
2024/02/29 04:47:19;;;;;;;15.07;8.70;;;;;;;6.59;100.00;101163.97;5095544;28;20040;-69
2024/02/29 04:50:07;;;;;;;11.00;7.20;;;;;;;6.64;100.00;101160.56;5110570;28;20111;-68
2024/02/29 04:52:55;;;;;;;13.40;6.85;;;;;;;6.63;100.00;101158.06;5132475;27;20407;-68
2024/02/29 04:55:44;;;;;;;11.63;6.55;;;;;;;6.60;100.00;101151.25;5102215;27;20048;-68
2024/02/29 04:58:32;;;;;;;14.95;8.80;;;;;;;6.58;100.00;101145.22;5076576;28;20926;-68
2024/02/29 05:01:20;;;;;;;14.88;9.07;;;;;;;6.57;100.00;101143.59;5090874;28;20125;-67
2024/02/29 05:04:08;;;;;;;13.75;8.65;;;;;;;6.56;100.00;101136.50;5113668;27;20046;-66
2024/02/29 05:06:56;;;;;;;11.15;7.53;;;;;;;6.51;100.00;101130.97;5111042;28;20111;-68
2024/02/29 05:09:44;;;;;;;12.65;7.80;;;;;;;6.48;100.00;101129.56;5111159;28;20134;-67
2024/02/29 05:12:32;;;;;;;14.32;9.10;;;;;;;6.50;100.00;101119.34;5110477;28;20047;-68
2024/02/29 05:15:22;;;;;;;13.57;8.45;;;;;;;6.52;100.00;101124.53;5074562;28;20400;-67
2024/02/29 05:18:10;;;;;;;13.00;8.43;;;;;;;6.52;100.00;101119.13;5092240;28;20060;-67
2024/02/29 05:20:59;;;;;;;15.20;9.60;;;;;;;6.46;100.00;101120.84;5077872;28;20116;-71
2024/02/29 05:23:47;;;;;;;13.77;8.82;;;;;;;6.42;100.00;101119.66;5077685;28;20197;-68
2024/02/29 05:26:35;;;;;;;13.02;8.65;;;;;;;6.40;100.00;101114.50;5095663;28;20044;-68
2024/02/29 05:29:23;;;;;;;14.30;9.00;;;;;;;6.42;100.00;101116.13;5110319;28;20082;-68
2024/02/29 05:32:11;;;;;;;14.15;8.43;;;;;;;6.42;100.00;101114.25;5062860;28;20044;-68
2024/02/29 05:35:05;;;;;;;11.77;7.20;;;;;;;6.48;100.00;101107.09;5109422;28;20048;-68
2024/02/29 05:37:53;;;;;;;12.50;7.78;;;;;;;6.54;100.00;101111.56;5090359;28;20452;-68
2024/02/29 05:40:45;;;;;;;12.88;7.03;;;;;;;6.53;100.00;101109.91;5082571;28;20039;-68
2024/02/29 05:43:34;;;;;;;10.70;5.93;;;;;;;6.56;100.00;101104.84;5095372;28;20058;-69
2024/02/29 05:46:23;;;;;;;9.80;6.15;;;;;;;6.61;100.00;101107.69;5108892;28;20079;-68
2024/02/29 05:49:11;;;;;;;11.23;7.20;;;;;;;6.63;100.00;101099.31;5067095;28;20468;-68
2024/02/29 05:51:59;;;;;;;15.25;7.75;;;;;;;6.65;100.00;101097.22;5110741;28;20066;-69
2024/02/29 05:54:49;;;;;;;12.10;7.53;;;;;;;6.66;100.00;101096.13;5094463;28;20388;-68
2024/02/29 05:57:37;;;;;;;13.85;7.35;;;;;;;6.68;100.00;101085.91;5075112;28;20071;-67
2024/02/29 06:00:25;;;;;;;10.85;7.40;;;;;;;6.66;100.00;101088.03;5088395;28;20140;-68
2024/02/29 06:03:13;;;;;;;10.48;6.40;;;;;;;6.65;100.00;101086.38;5061283;28;20048;-68
2024/02/29 06:06:01;;;;;;;10.32;5.72;;;;;;;6.71;100.00;101085.44;5062693;28;20135;-68
2024/02/29 06:08:49;;;;;;;12.38;6.45;;;;;;;6.70;100.00;101081.06;5110928;28;20046;-68
2024/02/29 06:11:37;;;;;;;9.32;5.85;;;;;;;6.75;100.00;101081.19;5112910;28;20054;-68
2024/02/29 06:14:25;;;;;;;11.98;6.65;;;;;;;6.77;100.00;101078.25;5113154;28;20635;-67
2024/02/29 06:17:13;;;;;;;11.00;6.40;;;;;;;6.78;100.00;101078.03;5083014;28;20039;-67
2024/02/29 06:20:01;;;;;;;9.70;5.75;;;;;;;6.79;100.00;101076.97;5082028;28;20065;-68
2024/02/29 06:22:51;;;;;;;10.32;6.50;;;;;;;6.80;100.00;101077.78;5094029;28;20052;-69
2024/02/29 06:25:42;;;;;;;14.23;7.93;;;;;;;6.80;100.00;101072.38;5066121;28;20128;-68
2024/02/29 06:28:30;;;;;;;14.70;7.60;;;;;;;6.81;100.00;101074.84;5082306;28;20044;-68
2024/02/29 06:31:18;;;;;;;14.60;7.43;;;;;;;6.82;100.00;101064.81;5078346;27;20048;-68
2024/02/29 06:34:06;;;;;;;10.48;6.55;;;;;;;6.81;100.00;101064.00;5077978;28;20585;-69
2024/02/29 06:36:56;;;;;;;8.73;5.22;;;;;;;6.88;100.00;101063.03;5087068;28;20553;-69
2024/02/29 06:39:46;;;;;;;11.75;6.65;;;;;;;6.88;100.00;101063.03;5082585;27;20074;-69
2024/02/29 06:42:34;;;;;;;10.13;6.25;;;;;;;6.86;100.00;101057.88;5083355;28;20044;-69
2024/02/29 06:45:22;;;;;;;9.07;5.70;;;;;;;6.96;100.00;101065.41;5063021;28;20139;-70
2024/02/29 06:48:10;;;;;;;8.32;4.97;;;;;;;7.03;100.00;101064.22;5091259;28;20186;-69
2024/02/29 06:50:58;;;;;;;13.75;8.50;;;;;;;6.96;100.00;101062.69;4400672;28;10000731;-72
2024/02/29 06:53:46;;;;;;;15.13;9.15;;;;;;;6.86;100.00;101065.19;5093536;28;20051;-70
2024/02/29 06:56:34;;;;;;;15.98;8.77;;;;;;;6.80;100.00;101061.53;5088834;27;20047;-69
2024/02/29 06:59:22;;;;;;;16.27;9.27;;;;;;;6.77;100.00;101064.72;5060803;28;20127;-70
2024/02/29 07:02:10;;;;;;;12.57;7.45;;;;;;;6.77;100.00;101054.72;5077895;28;20054;-70
2024/02/29 07:04:58;;;;;;;10.75;6.55;;;;;;;6.81;100.00;101055.88;5108972;28;20363;-70
2024/02/29 07:07:46;;;;;;;10.85;7.05;;;;;;;6.82;100.00;101056.72;5107856;27;20079;-70
2024/02/29 07:10:34;;;;;;;11.85;6.43;;;;;;;6.92;100.00;101059.63;5097771;28;20480;-69
2024/02/29 07:13:23;;;;;;;12.80;6.85;;;;;;;6.92;100.00;101058.81;5093050;28;20181;-69
2024/02/29 07:16:11;;;;;;;11.85;6.00;;;;;;;7.01;100.00;101057.38;5083086;28;20131;-67
2024/02/29 07:18:59;;;;;;;13.80;8.32;;;;;;;7.00;100.00;101063.88;5091788;28;20031;-70
2024/02/29 07:21:47;;;;;;;8.85;4.85;;;;;;;7.11;100.00;101049.47;5097964;28;20452;-70
2024/02/29 07:24:35;;;;;;;12.57;7.30;;;;;;;7.15;100.00;101045.22;5110079;28;20195;-70
2024/02/29 07:27:23;;;;;;;14.50;8.73;;;;;;;7.07;100.00;101048.31;5109208;28;20088;-71
2024/02/29 07:30:11;;;;;;;14.75;7.80;;;;;;;7.11;100.00;101044.03;5112973;28;20062;-67
2024/02/29 07:33:01;;;;;;;7.25;4.68;;;;;;;7.08;100.00;101038.28;5131159;27;20586;-65
2024/02/29 07:35:49;;;;;;;12.80;8.10;;;;;;;7.16;100.00;101033.31;5110514;28;20130;-67
2024/02/29 07:38:37;;;;;;;14.10;8.93;;;;;;;7.07;100.00;101040.19;5066673;28;20322;-69
2024/02/29 07:41:26;;;;;;;14.68;9.50;;;;;;;7.06;100.00;101035.81;5065849;28;20044;-67
2024/02/29 07:44:14;;;;;;;15.73;8.88;;;;;;;7.08;100.00;101033.69;5096629;28;20051;-69
2024/02/29 07:47:02;;;;;;;14.00;7.05;;;;;;;7.18;100.00;101036.59;5097586;28;20138;-68
2024/02/29 07:49:51;;;;;;;11.93;7.35;;;;;;;7.16;100.00;101033.31;5112371;28;20051;-69
2024/02/29 07:52:39;;;;;;;14.73;8.60;;;;;;;7.13;100.00;101033.78;5097118;28;20526;-69
2024/02/29 07:55:27;;;;;;;12.52;7.85;;;;;;;7.12;100.00;101032.16;5083113;28;20093;-69
2024/02/29 07:58:15;;;;;;;13.18;8.30;;;;;;;7.19;100.00;101027.44;5112740;27;20043;-69
2024/02/29 08:01:03;;;;;;;13.95;8.05;;;;;;;7.18;100.00;101025.75;5110620;28;20503;-69
2024/02/29 08:03:51;;;;;;;31.25;10.20;;;;;;;7.33;100.00;101021.72;5096924;28;20039;-68
2024/02/29 08:06:39;;;;;;;17.45;8.35;;;;;;;7.30;100.00;101011.38;5067526;28;20547;-69
2024/02/29 08:09:27;;;;;;;21.45;9.55;;;;;;;7.37;100.00;101017.47;5063904;27;20055;-69
2024/02/29 08:12:15;;;;;;;15.90;8.75;;;;;;;7.33;100.00;101014.41;5091734;28;20052;-68
2024/02/29 08:15:04;;;;;;;19.02;9.50;;;;;;;7.32;100.00;101014.66;5076432;28;20084;-69
2024/02/29 08:17:52;;;;;;;20.98;9.18;;;;;;;7.33;100.00;101013.59;5061203;28;20047;-69
2024/02/29 08:20:43;;;;;;;15.95;8.93;;;;;;;7.35;100.00;101008.75;5091037;28;20044;-69
2024/02/29 08:23:31;;;;;;;18.95;10.25;;;;;;;7.34;100.00;101005.22;5093179;28;20131;-69
2024/02/29 08:26:19;;;;;;;20.45;8.27;;;;;;;7.34;100.00;101001.69;5092427;28;20058;-69
2024/02/29 08:29:07;;;;;;;19.52;9.15;;;;;;;7.54;100.00;101004.75;5092875;28;20526;-69
2024/02/29 08:31:55;;;;;;;18.60;8.68;;;;;;;7.46;100.00;101007.88;5091047;28;20046;-69
2024/02/29 08:34:44;;;;;;;15.77;9.68;;;;;;;7.42;100.00;101004.00;5082669;28;20052;-68
2024/02/29 08:37:32;;;;;;;26.38;8.43;;;;;;;7.51;100.00;100999.03;5099008;27;20039;-69
2024/02/29 08:40:20;;;;;;;31.05;8.60;;;;;;;7.62;100.00;100998.94;5115144;27;20043;-70
2024/02/29 08:43:08;;;;;;;18.80;8.85;;;;;;;7.63;100.00;100984.34;5096480;28;20080;-69
2024/02/29 08:45:56;;;;;;;22.42;8.23;;;;;;;7.61;100.00;100991.88;5077580;28;20051;-70
2024/02/29 08:48:45;;;;;;;17.02;8.45;;;;;;;7.66;100.00;100986.53;5059959;28;20048;-69
2024/02/29 08:51:34;;;;;;;17.00;9.02;;;;;;;7.59;100.00;100985.88;5076127;28;20055;-68
2024/02/29 08:54:22;;;;;;;16.23;8.57;;;;;;;7.63;100.00;100980.81;5094089;28;20055;-69
2024/02/29 08:57:10;;;;;;;22.10;7.60;;;;;;;7.72;100.00;100981.22;5078365;28;20040;-68
2024/02/29 08:59:59;;;;;;;21.25;8.27;;;;;;;7.85;100.00;100981.72;5085725;28;20036;-68
2024/02/29 09:02:47;;;;;;;15.88;8.60;;;;;;;7.86;100.00;100979.81;5128489;27;20111;-69
2024/02/29 09:05:39;;;;;;;15.30;7.78;;;;;;;7.85;100.00;100972.75;5107979;27;20059;-68
2024/02/29 09:08:26;;;;;;;22.70;7.57;;;;;;;7.82;100.00;100971.38;5063182;28;20530;-68
2024/02/29 09:11:15;;;;;;;15.02;7.80;;;;;;;7.81;100.00;100971.59;5102290;28;20124;-67
2024/02/29 09:14:03;;;;;;;19.80;7.30;;;;;;;7.96;100.00;100966.44;5112708;28;20066;-69
2024/02/29 09:16:51;;;;;;;16.45;7.25;;;;;;;7.95;100.00;100964.78;5076183;28;20082;-67
2024/02/29 09:19:39;;;;;;;13.25;6.07;;;;;;;7.99;100.00;100956.97;5091473;28;20082;-68
2024/02/29 09:22:27;;;;;;;13.35;7.40;;;;;;;7.89;100.00;100958.47;5090296;28;20044;-68
2024/02/29 09:25:17;;;;;;;13.25;6.05;;;;;;;8.00;100.00;100945.06;5091928;28;20134;-68
2024/02/29 09:28:05;;;;;;;14.88;7.07;;;;;;;8.03;100.00;100945.38;5081762;28;20043;-69
2024/02/29 09:30:53;;;;;;;17.10;6.35;;;;;;;8.08;100.00;100942.75;5110179;28;20093;-68
2024/02/29 09:33:42;;;;;;;12.77;6.00;;;;;;;8.21;100.00;100940.75;5129537;28;20066;-69
2024/02/29 09:36:31;;;;;;;15.43;6.47;;;;;;;8.18;100.00;100933.09;5086229;28;20058;-68
2024/02/29 09:39:19;;;;;;;14.90;5.28;;;;;;;8.20;100.00;100934.50;5107413;28;20617;-68
2024/02/29 09:42:09;;;;;;;11.77;5.97;;;;;;;8.19;100.00;100926.63;5109579;28;20134;-69
2024/02/29 09:45:02;;;;;;;13.40;5.85;;;;;;;8.17;100.00;100918.72;5084318;28;20044;-69
2024/02/29 09:47:51;;;;;;;9.80;4.68;;;;;;;8.21;100.00;100924.47;5098637;27;20049;-69
2024/02/29 09:50:39;;;;;;;13.98;6.10;;;;;;;8.16;100.00;100927.13;5072607;28;20476;-68
2024/02/29 09:53:28;;;;;;;13.80;5.55;;;;;;;8.13;100.00;100924.88;5114504;28;20068;-69
2024/02/29 09:56:18;;;;;;;9.55;4.65;;;;;;;8.14;100.00;100919.22;5111811;27;20140;-69
2024/02/29 09:59:07;;;;;;;10.48;5.65;;;;;;;8.01;100.00;100920.41;5099576;28;20507;-68
2024/02/29 10:01:55;;;;;;;11.30;4.68;;;;;;;8.08;100.00;100915.63;5087175;27;20547;-69
2024/02/29 10:04:45;;;;;;;11.10;5.10;;;;;;;8.20;100.00;100914.66;5134764;27;20048;-69
2024/02/29 10:07:47;;;;;;;11.30;6.30;;;;;;;8.15;100.00;100909.16;5120944;27;20063;-69
2024/02/29 10:10:36;;;;;;;12.15;4.30;;;;;;;8.27;100.00;100910.72;5085165;28;20047;-68
2024/02/29 10:13:24;;;;;;;12.15;4.72;;;;;;;8.30;100.00;100909.41;5085379;28;20047;-68
2024/02/29 10:16:13;;;;;;;9.52;4.93;;;;;;;8.32;100.00;100901.81;5086009;28;20047;-67
2024/02/29 10:19:02;;;;;;;10.25;6.57;;;;;;;8.23;100.00;100896.00;5132548;27;20043;-68
2024/02/29 10:21:51;;;;;;;14.07;7.45;;;;;;;8.02;100.00;100905.75;5119646;27;20147;-69
2024/02/29 10:24:41;;;;;;;11.15;7.28;;;;;;;7.93;100.00;100901.81;5105852;27;20560;-69
2024/02/29 10:27:30;;;;;;;13.93;6.88;;;;;;;7.91;100.00;100895.81;5100036;27;20055;-69
2024/02/29 10:30:18;;;;;;;13.55;7.03;;;;;;;7.91;100.00;100895.81;5086736;28;20039;-69
2024/02/29 10:33:13;;;;;;;13.38;6.88;;;;;;;7.93;100.00;100895.56;5084395;28;20059;-69
2024/02/29 10:36:10;;;;;;;13.00;6.70;;;;;;;7.94;100.00;100887.19;5098065;28;20043;-69
2024/02/29 10:38:58;;;;;;;14.10;6.88;;;;;;;8.00;100.00;100891.59;5105890;28;20043;-68
2024/02/29 10:41:50;;;;;;;12.75;6.88;;;;;;;8.00;100.00;100888.88;5071849;27;20052;-69
2024/02/29 10:44:40;;;;;;;13.27;7.28;;;;;;;8.02;100.00;100878.59;5097679;28;20035;-68
2024/02/29 10:47:30;;;;;;;12.95;6.78;;;;;;;8.03;100.00;100885.69;5092763;28;20120;-68
2024/02/29 10:50:25;;;;;;;11.75;7.10;;;;;;;8.06;100.00;100884.38;5090944;27;20051;-68
2024/02/29 10:53:38;;;;;;;15.45;7.68;;;;;;;8.06;100.00;100879.75;5093417;28;20044;-68
2024/02/29 10:56:28;;;;;;;13.27;7.30;;;;;;;8.11;100.00;100881.72;5108167;28;20043;-67
2024/02/29 10:59:18;;;;;;;14.52;6.70;;;;;;;8.18;100.00;100878.81;5097673;28;20063;-67
2024/02/29 11:02:06;;;;;;;15.52;7.63;;;;;;;8.26;100.00;100878.41;5098979;28;20454;-68
2024/02/29 11:04:55;;;;;;;13.70;7.07;;;;;;;8.31;100.00;100875.75;5112838;27;20590;-67
2024/02/29 11:07:43;;;;;;;23.08;11.25;;;;;;;8.37;100.00;100872.03;5095940;28;20473;-67
2024/02/29 11:10:31;;;;;;;18.23;8.20;;;;;;;8.38;100.00;100881.81;5071637;28;20130;-68
2024/02/29 11:13:22;;;;;;;14.75;7.95;;;;;;;8.39;100.00;100867.16;5097374;28;20048;-68
2024/02/29 11:16:10;;;;;;;20.02;10.40;;;;;;;8.41;100.00;100864.22;4389547;27;10021586;-68
2024/02/29 11:19:06;;;;;;;19.15;8.95;;;;;;;8.42;100.00;100871.28;5083801;28;20051;-68
2024/02/29 11:21:54;;;;;;;18.50;9.40;;;;;;;8.52;100.00;100866.81;5107652;28;20413;-67
2024/02/29 11:24:46;;;;;;;28.25;13.13;;;;;;;8.60;100.00;100864.72;5098719;28;20043;-68
2024/02/29 11:27:34;;;;;;;24.40;12.57;;;;;;;8.81;100.00;100860.34;5102900;27;20039;-68
2024/02/29 11:30:23;;;;;;;33.78;16.60;;;;;;;8.96;100.00;100849.63;5086716;28;20043;-68
2024/02/29 11:33:12;;;;;;;25.75;13.70;;;;;;;8.89;100.00;100844.41;5089438;28;20059;-68
2024/02/29 11:36:00;;;;;;;22.60;11.57;;;;;;;8.81;100.00;100839.44;5084176;28;20071;-66
2024/02/29 11:38:49;;;;;;;28.45;14.30;;;;;;;8.81;100.00;100827.75;5127389;28;20089;-68
2024/02/29 11:41:38;;;;;;;23.73;12.32;;;;;;;8.90;100.00;100828.94;5108953;28;20048;-66
2024/02/29 11:44:26;;;;;;;27.25;13.10;;;;;;;8.96;100.00;100823.28;5106721;28;20052;-67
2024/02/29 11:47:14;;;;;;;34.13;17.17;;;;;;;8.94;100.00;100822.72;5132362;27;20044;-65
2024/02/29 11:50:02;;;;;;;19.02;10.88;;;;;;;8.88;100.00;100821.03;5112574;28;20073;-67
2024/02/29 11:52:50;;;;;;;24.58;12.60;;;;;;;8.80;100.00;100815.22;5102758;28;20120;-67
2024/02/29 11:55:38;;;;;;;20.15;11.25;;;;;;;8.82;100.00;100810.38;5067865;28;20064;-67
2024/02/29 11:58:26;;;;;;;31.63;15.15;;;;;;;8.87;100.00;100808.50;5079504;28;20083;-67
2024/02/29 12:01:14;;;;;;;17.67;8.98;;;;;;;8.88;100.00;100799.28;5094091;28;20051;-68
2024/02/29 12:04:06;;;;;;;17.77;9.05;;;;;;;8.78;100.00;100803.78;5080080;28;20119;-69
2024/02/29 12:06:55;;;;;;;18.50;9.50;;;;;;;8.79;100.00;100798.13;5103036;27;20491;-68
2024/02/29 12:09:44;;;;;;;21.92;11.13;;;;;;;8.87;100.00;100799.53;5081578;28;20496;-68
2024/02/29 12:12:32;;;;;;;17.58;8.40;;;;;;;8.79;100.00;100802.72;5060518;28;20050;-67
2024/02/29 12:15:21;;;;;;;19.40;9.68;;;;;;;8.76;100.00;100793.19;5077019;28;20036;-68
2024/02/29 12:18:10;;;;;;;14.25;7.95;;;;;;;8.71;100.00;100787.72;5088486;28;20546;-68
2024/02/29 12:20:58;;;;;;;15.15;8.20;;;;;;;8.70;100.00;100786.06;5093097;28;20035;-68
2024/02/29 12:23:46;;;;;;;12.60;7.60;;;;;;;8.71;100.00;100776.84;5107459;28;20036;-68
2024/02/29 12:26:35;;;;;;;15.82;8.07;;;;;;;8.72;100.00;100775.78;5097981;27;20095;-68
2024/02/29 12:29:23;;;;;;;11.52;7.45;;;;;;;8.73;100.00;100772.81;5047999;28;20058;-67
2024/02/29 12:32:11;;;;;;;13.48;7.45;;;;;;;8.79;100.00;100773.66;5074991;28;20050;-68
2024/02/29 12:35:00;;;;;;;10.98;6.85;;;;;;;8.81;100.00;100771.50;5062097;28;20631;-68
2024/02/29 12:37:48;;;;;;;15.63;8.65;;;;;;;8.82;100.00;100761.47;5091597;28;20043;-68
2024/02/29 12:40:36;;;;;;;18.27;9.88;;;;;;;8.88;100.00;100753.09;5092766;28;20407;-67
2024/02/29 12:43:24;;;;;;;14.52;7.10;;;;;;;8.77;100.00;100750.56;5093025;28;20118;-68
2024/02/29 12:46:14;;;;;;;13.43;6.68;;;;;;;8.69;100.00;100752.66;5074380;28;20036;-67
2024/02/29 12:49:03;;;;;;;14.88;6.82;;;;;;;8.69;100.00;100752.66;5091727;28;20047;-68
2024/02/29 12:51:51;;;;;;;14.75;7.47;;;;;;;8.81;100.00;100738.91;5091948;28;20107;-68
2024/02/29 12:54:43;;;;;;;11.65;7.47;;;;;;;8.78;100.00;100742.16;5093256;28;20051;-67